sensor_id;sensor_type;location;lat;lon;timestamp;P1;durP1;ratioP1;P2;durP2;ratioP2
65665;SDS011;52365;47.464;18.976;2024-02-14T00:00:16;4.47;;;3.03;;
65665;SDS011;52365;47.464;18.976;2024-02-14T00:00:37;5.22;;;3.22;;
65665;SDS011;52365;47.464;18.976;2024-02-14T00:00:58;5.75;;;3.45;;
65665;SDS011;52365;47.464;18.976;2024-02-14T00:01:18;5.07;;;3.47;;
65665;SDS011;52365;47.464;18.976;2024-02-14T00:01:40;6.00;;;3.47;;
65665;SDS011;52365;47.464;18.976;2024-02-14T00:02:01;5.12;;;3.15;;
65665;SDS011;52365;47.464;18.976;2024-02-14T00:02:22;4.65;;;3.17;;
65665;SDS011;52365;47.464;18.976;2024-02-14T00:02:43;4.30;;;3.17;;
65665;SDS011;52365;47.464;18.976;2024-02-14T00:03:04;4.60;;;3.20;;
65665;SDS011;52365;47.464;18.976;2024-02-14T00:03:26;4.53;;;3.08;;
65665;SDS011;52365;47.464;18.976;2024-02-14T00:03:47;5.03;;;3.20;;
65665;SDS011;52365;47.464;18.976;2024-02-14T00:04:09;5.18;;;3.20;;
65665;SDS011;52365;47.464;18.976;2024-02-14T00:04:31;5.18;;;2.90;;
65665;SDS011;52365;47.464;18.976;2024-02-14T00:04:52;5.40;;;3.08;;
65665;SDS011;52365;47.464;18.976;2024-02-14T00:05:14;4.87;;;3.10;;
65665;SDS011;52365;47.464;18.976;2024-02-14T00:05:34;4.50;;;3.10;;
65665;SDS011;52365;47.464;18.976;2024-02-14T00:05:55;4.75;;;2.90;;
65665;SDS011;52365;47.464;18.976;2024-02-14T00:06:17;4.30;;;2.80;;
65665;SDS011;52365;47.464;18.976;2024-02-14T00:06:39;4.80;;;2.90;;
65665;SDS011;52365;47.464;18.976;2024-02-14T00:07:00;4.93;;;2.92;;
65665;SDS011;52365;47.464;18.976;2024-02-14T00:07:21;5.75;;;2.90;;
65665;SDS011;52365;47.464;18.976;2024-02-14T00:07:42;4.85;;;2.97;;
65665;SDS011;52365;47.464;18.976;2024-02-14T00:08:03;4.60;;;3.12;;
65665;SDS011;52365;47.464;18.976;2024-02-14T00:08:25;4.32;;;2.83;;
65665;SDS011;52365;47.464;18.976;2024-02-14T00:08:46;4.70;;;2.90;;
65665;SDS011;52365;47.464;18.976;2024-02-14T00:09:07;4.70;;;2.90;;
65665;SDS011;52365;47.464;18.976;2024-02-14T00:09:28;5.07;;;3.08;;
65665;SDS011;52365;47.464;18.976;2024-02-14T00:09:49;4.87;;;2.90;;
65665;SDS011;52365;47.464;18.976;2024-02-14T00:10:09;5.62;;;2.92;;
65665;SDS011;52365;47.464;18.976;2024-02-14T00:10:30;4.80;;;3.03;;
65665;SDS011;52365;47.464;18.976;2024-02-14T00:10:51;4.70;;;3.10;;
65665;SDS011;52365;47.464;18.976;2024-02-14T00:11:12;4.45;;;2.70;;
65665;SDS011;52365;47.464;18.976;2024-02-14T00:11:34;4.30;;;2.92;;
65665;SDS011;52365;47.464;18.976;2024-02-14T00:11:55;4.60;;;3.28;;
65665;SDS011;52365;47.464;18.976;2024-02-14T00:12:16;4.93;;;2.90;;
65665;SDS011;52365;47.464;18.976;2024-02-14T00:12:37;5.37;;;2.83;;
65665;SDS011;52365;47.464;18.976;2024-02-14T00:12:58;5.47;;;3.40;;
65665;SDS011;52365;47.464;18.976;2024-02-14T00:13:19;6.55;;;4.00;;
65665;SDS011;52365;47.464;18.976;2024-02-14T00:13:35;16.55;;;10.48;;
65665;SDS011;52365;47.464;18.976;2024-02-14T00:13:56;38.50;;;22.13;;
65665;SDS011;52365;47.464;18.976;2024-02-14T00:14:17;46.42;;;26.95;;
65665;SDS011;52365;47.464;18.976;2024-02-14T00:14:40;81.47;;;48.00;;
65665;SDS011;52365;47.464;18.976;2024-02-14T00:15:01;33.53;;;19.73;;
65665;SDS011;52365;47.464;18.976;2024-02-14T00:15:23;31.25;;;18.20;;
65665;SDS011;52365;47.464;18.976;2024-02-14T00:15:41;8.85;;;5.60;;
65665;SDS011;52365;47.464;18.976;2024-02-14T00:16:02;8.15;;;4.90;;
65665;SDS011;52365;47.464;18.976;2024-02-14T00:16:23;6.65;;;4.20;;
65665;SDS011;52365;47.464;18.976;2024-02-14T00:16:44;6.45;;;3.75;;
65665;SDS011;52365;47.464;18.976;2024-02-14T00:17:05;6.72;;;3.72;;
65665;SDS011;52365;47.464;18.976;2024-02-14T00:17:27;5.80;;;3.70;;
65665;SDS011;52365;47.464;18.976;2024-02-14T00:17:48;6.47;;;3.90;;
65665;SDS011;52365;47.464;18.976;2024-02-14T00:18:09;5.22;;;3.55;;
65665;SDS011;52365;47.464;18.976;2024-02-14T00:18:30;5.12;;;3.30;;
65665;SDS011;52365;47.464;18.976;2024-02-14T00:18:51;5.37;;;3.37;;
65665;SDS011;52365;47.464;18.976;2024-02-14T00:19:12;5.43;;;3.28;;
65665;SDS011;52365;47.464;18.976;2024-02-14T00:19:34;6.12;;;3.10;;
65665;SDS011;52365;47.464;18.976;2024-02-14T00:19:55;5.00;;;3.47;;
65665;SDS011;52365;47.464;18.976;2024-02-14T00:20:16;6.12;;;3.62;;
65665;SDS011;52365;47.464;18.976;2024-02-14T00:20:37;6.68;;;3.47;;
65665;SDS011;52365;47.464;18.976;2024-02-14T00:20:59;6.18;;;3.45;;
65665;SDS011;52365;47.464;18.976;2024-02-14T00:21:21;5.18;;;3.37;;
65665;SDS011;52365;47.464;18.976;2024-02-14T00:21:42;4.80;;;3.20;;
65665;SDS011;52365;47.464;18.976;2024-02-14T00:22:03;5.03;;;3.45;;
65665;SDS011;52365;47.464;18.976;2024-02-14T00:22:24;5.53;;;3.50;;
65665;SDS011;52365;47.464;18.976;2024-02-14T00:22:45;5.75;;;3.35;;
65665;SDS011;52365;47.464;18.976;2024-02-14T00:23:06;6.20;;;3.60;;
65665;SDS011;52365;47.464;18.976;2024-02-14T00:23:27;6.68;;;3.53;;
65665;SDS011;52365;47.464;18.976;2024-02-14T00:23:48;5.07;;;3.20;;
65665;SDS011;52365;47.464;18.976;2024-02-14T00:24:04;4.47;;;2.97;;
65665;SDS011;52365;47.464;18.976;2024-02-14T00:24:26;4.07;;;2.80;;
65665;SDS011;52365;47.464;18.976;2024-02-14T00:24:49;4.45;;;3.03;;
65665;SDS011;52365;47.464;18.976;2024-02-14T00:25:10;4.62;;;2.90;;
65665;SDS011;52365;47.464;18.976;2024-02-14T00:25:31;4.60;;;2.80;;
65665;SDS011;52365;47.464;18.976;2024-02-14T00:25:52;4.82;;;2.83;;
65665;SDS011;52365;47.464;18.976;2024-02-14T00:26:13;5.35;;;2.97;;
65665;SDS011;52365;47.464;18.976;2024-02-14T00:26:34;4.72;;;3.05;;
65665;SDS011;52365;47.464;18.976;2024-02-14T00:26:56;4.00;;;2.72;;
65665;SDS011;52365;47.464;18.976;2024-02-14T00:27:17;4.15;;;2.80;;
65665;SDS011;52365;47.464;18.976;2024-02-14T00:27:38;5.15;;;2.60;;
65665;SDS011;52365;47.464;18.976;2024-02-14T00:28:00;5.95;;;3.03;;
65665;SDS011;52365;47.464;18.976;2024-02-14T00:28:21;4.80;;;3.00;;
65665;SDS011;52365;47.464;18.976;2024-02-14T00:28:44;4.68;;;2.75;;
65665;SDS011;52365;47.464;18.976;2024-02-14T00:29:05;4.05;;;2.75;;
65665;SDS011;52365;47.464;18.976;2024-02-14T00:29:26;4.57;;;2.70;;
65665;SDS011;52365;47.464;18.976;2024-02-14T00:29:47;4.32;;;2.53;;
65665;SDS011;52365;47.464;18.976;2024-02-14T00:30:09;3.95;;;2.75;;
65665;SDS011;52365;47.464;18.976;2024-02-14T00:30:30;3.90;;;2.60;;
65665;SDS011;52365;47.464;18.976;2024-02-14T00:30:51;4.57;;;2.70;;
65665;SDS011;52365;47.464;18.976;2024-02-14T00:31:12;5.78;;;2.65;;
65665;SDS011;52365;47.464;18.976;2024-02-14T00:31:33;4.40;;;2.42;;
65665;SDS011;52365;47.464;18.976;2024-02-14T00:31:54;4.18;;;2.60;;
65665;SDS011;52365;47.464;18.976;2024-02-14T00:32:15;3.65;;;2.50;;
65665;SDS011;52365;47.464;18.976;2024-02-14T00:32:36;3.90;;;2.62;;
65665;SDS011;52365;47.464;18.976;2024-02-14T00:32:57;3.87;;;2.60;;
65665;SDS011;52365;47.464;18.976;2024-02-14T00:33:18;5.07;;;2.90;;
65665;SDS011;52365;47.464;18.976;2024-02-14T00:33:41;4.05;;;2.62;;
65665;SDS011;52365;47.464;18.976;2024-02-14T00:34:01;4.22;;;2.60;;
65665;SDS011;52365;47.464;18.976;2024-02-14T00:34:22;4.45;;;2.65;;
65665;SDS011;52365;47.464;18.976;2024-02-14T00:34:44;4.70;;;2.60;;
65665;SDS011;52365;47.464;18.976;2024-02-14T00:35:06;4.45;;;2.80;;
65665;SDS011;52365;47.464;18.976;2024-02-14T00:35:27;4.18;;;2.67;;
65665;SDS011;52365;47.464;18.976;2024-02-14T00:35:48;4.97;;;2.80;;
65665;SDS011;52365;47.464;18.976;2024-02-14T00:36:09;4.90;;;2.72;;
65665;SDS011;52365;47.464;18.976;2024-02-14T00:36:30;4.43;;;2.80;;
65665;SDS011;52365;47.464;18.976;2024-02-14T00:36:51;4.30;;;2.85;;
65665;SDS011;52365;47.464;18.976;2024-02-14T00:37:11;4.93;;;2.80;;
65665;SDS011;52365;47.464;18.976;2024-02-14T00:37:32;4.82;;;2.87;;
65665;SDS011;52365;47.464;18.976;2024-02-14T00:37:54;4.65;;;2.67;;
65665;SDS011;52365;47.464;18.976;2024-02-14T00:38:16;5.05;;;2.67;;
65665;SDS011;52365;47.464;18.976;2024-02-14T00:38:37;4.30;;;2.75;;
65665;SDS011;52365;47.464;18.976;2024-02-14T00:38:58;4.32;;;2.90;;
65665;SDS011;52365;47.464;18.976;2024-02-14T00:39:19;4.95;;;3.00;;
65665;SDS011;52365;47.464;18.976;2024-02-14T00:39:40;5.87;;;3.10;;
65665;SDS011;52365;47.464;18.976;2024-02-14T00:40:01;6.53;;;3.25;;
65665;SDS011;52365;47.464;18.976;2024-02-14T00:40:22;5.53;;;2.85;;
65665;SDS011;52365;47.464;18.976;2024-02-14T00:40:43;4.25;;;2.70;;
65665;SDS011;52365;47.464;18.976;2024-02-14T00:41:04;5.25;;;2.85;;
65665;SDS011;52365;47.464;18.976;2024-02-14T00:41:25;4.97;;;2.87;;
65665;SDS011;52365;47.464;18.976;2024-02-14T00:41:50;5.05;;;2.62;;
65665;SDS011;52365;47.464;18.976;2024-02-14T00:42:13;4.95;;;2.90;;
65665;SDS011;52365;47.464;18.976;2024-02-14T00:42:33;4.93;;;3.00;;
65665;SDS011;52365;47.464;18.976;2024-02-14T00:42:54;4.72;;;3.10;;
65665;SDS011;52365;47.464;18.976;2024-02-14T00:43:15;4.32;;;2.80;;
65665;SDS011;52365;47.464;18.976;2024-02-14T00:43:36;4.50;;;2.70;;
65665;SDS011;52365;47.464;18.976;2024-02-14T00:43:57;4.35;;;2.50;;
65665;SDS011;52365;47.464;18.976;2024-02-14T00:44:18;5.20;;;3.03;;
65665;SDS011;52365;47.464;18.976;2024-02-14T00:44:40;4.60;;;2.92;;
65665;SDS011;52365;47.464;18.976;2024-02-14T00:45:01;4.00;;;2.75;;
65665;SDS011;52365;47.464;18.976;2024-02-14T00:45:23;4.68;;;2.87;;
65665;SDS011;52365;47.464;18.976;2024-02-14T00:45:44;4.30;;;2.70;;
65665;SDS011;52365;47.464;18.976;2024-02-14T00:46:06;4.43;;;2.47;;
65665;SDS011;52365;47.464;18.976;2024-02-14T00:46:27;4.00;;;2.42;;
65665;SDS011;52365;47.464;18.976;2024-02-14T00:46:48;3.50;;;2.42;;
65665;SDS011;52365;47.464;18.976;2024-02-14T00:47:09;4.20;;;2.60;;
65665;SDS011;52365;47.464;18.976;2024-02-14T00:47:32;5.28;;;2.55;;
65665;SDS011;52365;47.464;18.976;2024-02-14T00:47:53;4.80;;;2.58;;
65665;SDS011;52365;47.464;18.976;2024-02-14T00:48:14;4.55;;;2.55;;
65665;SDS011;52365;47.464;18.976;2024-02-14T00:48:35;4.37;;;2.70;;
65665;SDS011;52365;47.464;18.976;2024-02-14T00:48:56;5.25;;;2.50;;
65665;SDS011;52365;47.464;18.976;2024-02-14T00:49:17;5.32;;;2.72;;
65665;SDS011;52365;47.464;18.976;2024-02-14T00:49:37;4.75;;;2.83;;
65665;SDS011;52365;47.464;18.976;2024-02-14T00:50:00;5.62;;;2.62;;
65665;SDS011;52365;47.464;18.976;2024-02-14T00:50:21;3.72;;;2.40;;
65665;SDS011;52365;47.464;18.976;2024-02-14T00:50:42;4.90;;;2.80;;
65665;SDS011;52365;47.464;18.976;2024-02-14T00:51:03;4.15;;;2.70;;
65665;SDS011;52365;47.464;18.976;2024-02-14T00:51:24;4.00;;;2.50;;
65665;SDS011;52365;47.464;18.976;2024-02-14T00:51:45;4.37;;;2.67;;
65665;SDS011;52365;47.464;18.976;2024-02-14T00:52:06;4.80;;;2.80;;
65665;SDS011;52365;47.464;18.976;2024-02-14T00:52:27;4.22;;;2.58;;
65665;SDS011;52365;47.464;18.976;2024-02-14T00:52:48;3.53;;;2.40;;
65665;SDS011;52365;47.464;18.976;2024-02-14T00:53:09;3.87;;;2.55;;
65665;SDS011;52365;47.464;18.976;2024-02-14T00:53:30;4.32;;;2.50;;
65665;SDS011;52365;47.464;18.976;2024-02-14T00:53:51;4.80;;;2.70;;
65665;SDS011;52365;47.464;18.976;2024-02-14T00:54:12;4.30;;;2.67;;
65665;SDS011;52365;47.464;18.976;2024-02-14T00:54:34;4.68;;;2.60;;
65665;SDS011;52365;47.464;18.976;2024-02-14T00:54:55;4.30;;;2.65;;
65665;SDS011;52365;47.464;18.976;2024-02-14T00:55:16;4.87;;;2.70;;
65665;SDS011;52365;47.464;18.976;2024-02-14T00:55:37;3.95;;;2.37;;
65665;SDS011;52365;47.464;18.976;2024-02-14T00:55:58;4.50;;;2.47;;
65665;SDS011;52365;47.464;18.976;2024-02-14T00:56:19;3.80;;;2.47;;
65665;SDS011;52365;47.464;18.976;2024-02-14T00:56:40;4.35;;;2.80;;
65665;SDS011;52365;47.464;18.976;2024-02-14T00:57:01;4.28;;;2.60;;
65665;SDS011;52365;47.464;18.976;2024-02-14T00:57:22;4.07;;;2.60;;
65665;SDS011;52365;47.464;18.976;2024-02-14T00:57:46;4.40;;;2.55;;
65665;SDS011;52365;47.464;18.976;2024-02-14T00:58:07;4.62;;;2.70;;
65665;SDS011;52365;47.464;18.976;2024-02-14T00:58:28;4.50;;;2.67;;
65665;SDS011;52365;47.464;18.976;2024-02-14T00:58:49;4.25;;;2.40;;
65665;SDS011;52365;47.464;18.976;2024-02-14T00:59:10;3.92;;;2.58;;
65665;SDS011;52365;47.464;18.976;2024-02-14T00:59:31;4.03;;;2.55;;
65665;SDS011;52365;47.464;18.976;2024-02-14T00:59:52;3.53;;;2.40;;
65665;SDS011;52365;47.464;18.976;2024-02-14T01:00:13;3.75;;;2.58;;
65665;SDS011;52365;47.464;18.976;2024-02-14T01:00:34;4.22;;;2.90;;
65665;SDS011;52365;47.464;18.976;2024-02-14T01:00:55;4.25;;;2.80;;
65665;SDS011;52365;47.464;18.976;2024-02-14T01:01:16;4.00;;;2.60;;
65665;SDS011;52365;47.464;18.976;2024-02-14T01:01:38;4.25;;;2.55;;
65665;SDS011;52365;47.464;18.976;2024-02-14T01:01:59;4.60;;;2.60;;
65665;SDS011;52365;47.464;18.976;2024-02-14T01:02:20;4.20;;;2.67;;
65665;SDS011;52365;47.464;18.976;2024-02-14T01:02:42;4.37;;;2.40;;
65665;SDS011;52365;47.464;18.976;2024-02-14T01:03:02;4.00;;;2.40;;
65665;SDS011;52365;47.464;18.976;2024-02-14T01:03:23;3.53;;;2.40;;
65665;SDS011;52365;47.464;18.976;2024-02-14T01:03:44;3.70;;;2.50;;
65665;SDS011;52365;47.464;18.976;2024-02-14T01:04:06;4.15;;;2.65;;
65665;SDS011;52365;47.464;18.976;2024-02-14T01:04:27;4.53;;;2.70;;
65665;SDS011;52365;47.464;18.976;2024-02-14T01:04:48;4.80;;;2.60;;
65665;SDS011;52365;47.464;18.976;2024-02-14T01:05:09;4.28;;;3.00;;
65665;SDS011;52365;47.464;18.976;2024-02-14T01:05:30;4.62;;;2.80;;
65665;SDS011;52365;47.464;18.976;2024-02-14T01:05:51;4.80;;;2.80;;
65665;SDS011;52365;47.464;18.976;2024-02-14T01:06:12;3.75;;;2.58;;
65665;SDS011;52365;47.464;18.976;2024-02-14T01:06:34;5.97;;;2.50;;
65665;SDS011;52365;47.464;18.976;2024-02-14T01:06:55;5.25;;;2.60;;
65665;SDS011;52365;47.464;18.976;2024-02-14T01:07:16;3.70;;;2.40;;
65665;SDS011;52365;47.464;18.976;2024-02-14T01:07:37;3.90;;;2.40;;
65665;SDS011;52365;47.464;18.976;2024-02-14T01:07:58;4.50;;;2.53;;
65665;SDS011;52365;47.464;18.976;2024-02-14T01:08:19;4.45;;;2.58;;
65665;SDS011;52365;47.464;18.976;2024-02-14T01:08:40;4.50;;;2.60;;
65665;SDS011;52365;47.464;18.976;2024-02-14T01:09:02;5.37;;;2.80;;
65665;SDS011;52365;47.464;18.976;2024-02-14T01:09:24;4.85;;;2.58;;
65665;SDS011;52365;47.464;18.976;2024-02-14T01:09:44;4.55;;;2.55;;
65665;SDS011;52365;47.464;18.976;2024-02-14T01:10:05;5.10;;;2.90;;
65665;SDS011;52365;47.464;18.976;2024-02-14T01:10:27;4.90;;;2.65;;
65665;SDS011;52365;47.464;18.976;2024-02-14T01:10:47;4.28;;;2.50;;
65665;SDS011;52365;47.464;18.976;2024-02-14T01:11:11;3.70;;;2.40;;
65665;SDS011;52365;47.464;18.976;2024-02-14T01:11:31;4.60;;;2.50;;
65665;SDS011;52365;47.464;18.976;2024-02-14T01:11:52;4.07;;;2.60;;
65665;SDS011;52365;47.464;18.976;2024-02-14T01:12:13;3.70;;;2.35;;
65665;SDS011;52365;47.464;18.976;2024-02-14T01:12:35;3.70;;;2.40;;
65665;SDS011;52365;47.464;18.976;2024-02-14T01:12:56;4.35;;;2.50;;
65665;SDS011;52365;47.464;18.976;2024-02-14T01:13:18;4.10;;;2.58;;
65665;SDS011;52365;47.464;18.976;2024-02-14T01:13:39;3.80;;;2.45;;
65665;SDS011;52365;47.464;18.976;2024-02-14T01:14:00;4.30;;;2.67;;
65665;SDS011;52365;47.464;18.976;2024-02-14T01:14:22;4.53;;;2.50;;
65665;SDS011;52365;47.464;18.976;2024-02-14T01:14:43;5.45;;;2.60;;
65665;SDS011;52365;47.464;18.976;2024-02-14T01:15:04;5.15;;;2.80;;
65665;SDS011;52365;47.464;18.976;2024-02-14T01:15:25;4.85;;;2.72;;
65665;SDS011;52365;47.464;18.976;2024-02-14T01:15:46;4.78;;;2.55;;
65665;SDS011;52365;47.464;18.976;2024-02-14T01:16:07;4.78;;;2.42;;
65665;SDS011;52365;47.464;18.976;2024-02-14T01:16:28;4.43;;;2.70;;
65665;SDS011;52365;47.464;18.976;2024-02-14T01:16:49;4.80;;;2.53;;
65665;SDS011;52365;47.464;18.976;2024-02-14T01:17:10;4.05;;;2.60;;
65665;SDS011;52365;47.464;18.976;2024-02-14T01:17:31;4.03;;;2.70;;
65665;SDS011;52365;47.464;18.976;2024-02-14T01:17:53;4.78;;;2.67;;
65665;SDS011;52365;47.464;18.976;2024-02-14T01:18:14;4.72;;;2.60;;
65665;SDS011;52365;47.464;18.976;2024-02-14T01:18:35;4.30;;;2.60;;
65665;SDS011;52365;47.464;18.976;2024-02-14T01:18:56;4.55;;;2.58;;
65665;SDS011;52365;47.464;18.976;2024-02-14T01:19:17;5.12;;;2.60;;
65665;SDS011;52365;47.464;18.976;2024-02-14T01:19:39;4.72;;;2.70;;
65665;SDS011;52365;47.464;18.976;2024-02-14T01:20:01;4.80;;;2.70;;
65665;SDS011;52365;47.464;18.976;2024-02-14T01:20:22;4.65;;;2.60;;
65665;SDS011;52365;47.464;18.976;2024-02-14T01:20:43;4.65;;;2.72;;
65665;SDS011;52365;47.464;18.976;2024-02-14T01:21:04;5.15;;;2.78;;
65665;SDS011;52365;47.464;18.976;2024-02-14T01:21:26;3.70;;;2.33;;
65665;SDS011;52365;47.464;18.976;2024-02-14T01:21:47;3.85;;;2.40;;
65665;SDS011;52365;47.464;18.976;2024-02-14T01:22:09;4.50;;;2.53;;
65665;SDS011;52365;47.464;18.976;2024-02-14T01:22:29;4.18;;;2.60;;
65665;SDS011;52365;47.464;18.976;2024-02-14T01:22:50;4.20;;;2.50;;
65665;SDS011;52365;47.464;18.976;2024-02-14T01:23:11;4.15;;;2.47;;
65665;SDS011;52365;47.464;18.976;2024-02-14T01:23:32;5.03;;;2.60;;
65665;SDS011;52365;47.464;18.976;2024-02-14T01:23:53;5.10;;;2.60;;
65665;SDS011;52365;47.464;18.976;2024-02-14T01:24:15;4.32;;;2.67;;
65665;SDS011;52365;47.464;18.976;2024-02-14T01:24:36;4.87;;;2.78;;
65665;SDS011;52365;47.464;18.976;2024-02-14T01:24:57;4.47;;;2.53;;
65665;SDS011;52365;47.464;18.976;2024-02-14T01:25:19;4.40;;;2.30;;
65665;SDS011;52365;47.464;18.976;2024-02-14T01:25:35;4.28;;;2.30;;
65665;SDS011;52365;47.464;18.976;2024-02-14T01:25:56;4.60;;;2.50;;
65665;SDS011;52365;47.464;18.976;2024-02-14T01:26:17;4.03;;;2.40;;
65665;SDS011;52365;47.464;18.976;2024-02-14T01:26:38;4.87;;;2.40;;
65665;SDS011;52365;47.464;18.976;2024-02-14T01:26:59;4.32;;;2.45;;
65665;SDS011;52365;47.464;18.976;2024-02-14T01:27:20;3.45;;;2.20;;
65665;SDS011;52365;47.464;18.976;2024-02-14T01:27:43;4.00;;;2.30;;
65665;SDS011;52365;47.464;18.976;2024-02-14T01:28:04;5.05;;;2.47;;
65665;SDS011;52365;47.464;18.976;2024-02-14T01:28:25;3.65;;;2.20;;
65665;SDS011;52365;47.464;18.976;2024-02-14T01:28:46;3.60;;;2.15;;
65665;SDS011;52365;47.464;18.976;2024-02-14T01:29:07;3.78;;;2.37;;
65665;SDS011;52365;47.464;18.976;2024-02-14T01:29:30;4.28;;;2.45;;
65665;SDS011;52365;47.464;18.976;2024-02-14T01:29:50;4.10;;;2.40;;
65665;SDS011;52365;47.464;18.976;2024-02-14T01:30:11;4.12;;;2.40;;
65665;SDS011;52365;47.464;18.976;2024-02-14T01:30:32;3.72;;;2.20;;
65665;SDS011;52365;47.464;18.976;2024-02-14T01:30:53;3.90;;;2.50;;
65665;SDS011;52365;47.464;18.976;2024-02-14T01:31:14;4.03;;;2.55;;
65665;SDS011;52365;47.464;18.976;2024-02-14T01:31:35;4.57;;;2.35;;
65665;SDS011;52365;47.464;18.976;2024-02-14T01:31:56;4.97;;;2.40;;
65665;SDS011;52365;47.464;18.976;2024-02-14T01:32:17;4.40;;;2.40;;
65665;SDS011;52365;47.464;18.976;2024-02-14T01:32:38;3.67;;;2.12;;
65665;SDS011;52365;47.464;18.976;2024-02-14T01:32:59;4.55;;;2.22;;
65665;SDS011;52365;47.464;18.976;2024-02-14T01:33:21;3.78;;;2.10;;
65665;SDS011;52365;47.464;18.976;2024-02-14T01:33:42;4.05;;;2.20;;
65665;SDS011;52365;47.464;18.976;2024-02-14T01:34:04;3.20;;;2.10;;
65665;SDS011;52365;47.464;18.976;2024-02-14T01:34:25;4.40;;;2.10;;
65665;SDS011;52365;47.464;18.976;2024-02-14T01:34:46;4.55;;;2.10;;
65665;SDS011;52365;47.464;18.976;2024-02-14T01:35:07;4.35;;;2.20;;
65665;SDS011;52365;47.464;18.976;2024-02-14T01:35:28;3.80;;;2.25;;
65665;SDS011;52365;47.464;18.976;2024-02-14T01:35:49;4.15;;;1.95;;
65665;SDS011;52365;47.464;18.976;2024-02-14T01:36:10;4.53;;;2.20;;
65665;SDS011;52365;47.464;18.976;2024-02-14T01:36:31;3.22;;;2.10;;
65665;SDS011;52365;47.464;18.976;2024-02-14T01:36:52;3.60;;;1.90;;
65665;SDS011;52365;47.464;18.976;2024-02-14T01:37:14;3.17;;;1.90;;
65665;SDS011;52365;47.464;18.976;2024-02-14T01:37:35;3.95;;;2.00;;
65665;SDS011;52365;47.464;18.976;2024-02-14T01:37:56;3.72;;;2.00;;
65665;SDS011;52365;47.464;18.976;2024-02-14T01:38:17;3.12;;;1.90;;
65665;SDS011;52365;47.464;18.976;2024-02-14T01:38:38;3.20;;;2.10;;
65665;SDS011;52365;47.464;18.976;2024-02-14T01:38:59;4.25;;;2.12;;
65665;SDS011;52365;47.464;18.976;2024-02-14T01:39:20;3.83;;;1.95;;
65665;SDS011;52365;47.464;18.976;2024-02-14T01:39:42;3.97;;;2.00;;
65665;SDS011;52365;47.464;18.976;2024-02-14T01:40:03;3.22;;;1.90;;
65665;SDS011;52365;47.464;18.976;2024-02-14T01:40:25;3.35;;;1.80;;
65665;SDS011;52365;47.464;18.976;2024-02-14T01:40:46;3.03;;;1.90;;
65665;SDS011;52365;47.464;18.976;2024-02-14T01:41:07;3.42;;;1.83;;
65665;SDS011;52365;47.464;18.976;2024-02-14T01:41:28;3.22;;;1.87;;
65665;SDS011;52365;47.464;18.976;2024-02-14T01:41:49;2.72;;;1.90;;
65665;SDS011;52365;47.464;18.976;2024-02-14T01:42:10;2.78;;;1.77;;
65665;SDS011;52365;47.464;18.976;2024-02-14T01:42:31;3.08;;;1.90;;
65665;SDS011;52365;47.464;18.976;2024-02-14T01:42:52;2.83;;;1.73;;
65665;SDS011;52365;47.464;18.976;2024-02-14T01:43:13;2.92;;;1.73;;
65665;SDS011;52365;47.464;18.976;2024-02-14T01:43:35;3.45;;;1.90;;
65665;SDS011;52365;47.464;18.976;2024-02-14T01:43:56;3.42;;;1.77;;
65665;SDS011;52365;47.464;18.976;2024-02-14T01:44:19;3.15;;;1.83;;
65665;SDS011;52365;47.464;18.976;2024-02-14T01:44:41;3.62;;;1.70;;
65665;SDS011;52365;47.464;18.976;2024-02-14T01:44:59;3.72;;;1.65;;
65665;SDS011;52365;47.464;18.976;2024-02-14T01:45:19;3.87;;;1.80;;
65665;SDS011;52365;47.464;18.976;2024-02-14T01:45:40;3.50;;;1.87;;
65665;SDS011;52365;47.464;18.976;2024-02-14T01:46:05;5.37;;;1.90;;
65665;SDS011;52365;47.464;18.976;2024-02-14T01:46:27;2.92;;;1.70;;
65665;SDS011;52365;47.464;18.976;2024-02-14T01:46:48;3.22;;;1.73;;
65665;SDS011;52365;47.464;18.976;2024-02-14T01:47:09;4.32;;;2.20;;
65665;SDS011;52365;47.464;18.976;2024-02-14T01:47:31;3.87;;;1.80;;
65665;SDS011;52365;47.464;18.976;2024-02-14T01:47:52;4.07;;;1.92;;
65665;SDS011;52365;47.464;18.976;2024-02-14T01:48:14;3.50;;;1.83;;
65665;SDS011;52365;47.464;18.976;2024-02-14T01:48:39;3.45;;;2.05;;
65665;SDS011;52365;47.464;18.976;2024-02-14T01:49:01;4.22;;;2.70;;
65665;SDS011;52365;47.464;18.976;2024-02-14T01:49:23;4.60;;;2.45;;
65665;SDS011;52365;47.464;18.976;2024-02-14T01:49:45;4.50;;;2.60;;
65665;SDS011;52365;47.464;18.976;2024-02-14T01:50:07;5.15;;;2.90;;
65665;SDS011;52365;47.464;18.976;2024-02-14T01:50:31;4.93;;;3.10;;
65665;SDS011;52365;47.464;18.976;2024-02-14T01:50:53;4.97;;;3.42;;
65665;SDS011;52365;47.464;18.976;2024-02-14T01:51:14;5.80;;;3.47;;
65665;SDS011;52365;47.464;18.976;2024-02-14T01:51:38;5.57;;;3.45;;
65665;SDS011;52365;47.464;18.976;2024-02-14T01:52:02;4.62;;;3.25;;
65665;SDS011;52365;47.464;18.976;2024-02-14T01:52:24;5.07;;;2.95;;
65665;SDS011;52365;47.464;18.976;2024-02-14T01:52:45;5.47;;;3.22;;
65665;SDS011;52365;47.464;18.976;2024-02-14T01:53:06;5.72;;;3.53;;
65665;SDS011;52365;47.464;18.976;2024-02-14T01:53:27;5.87;;;3.37;;
65665;SDS011;52365;47.464;18.976;2024-02-14T01:53:51;6.68;;;3.50;;
65665;SDS011;52365;47.464;18.976;2024-02-14T01:54:15;5.55;;;3.30;;
65665;SDS011;52365;47.464;18.976;2024-02-14T01:54:38;5.65;;;3.42;;
65665;SDS011;52365;47.464;18.976;2024-02-14T01:54:59;5.57;;;3.60;;
65665;SDS011;52365;47.464;18.976;2024-02-14T01:55:20;6.10;;;3.53;;
65665;SDS011;52365;47.464;18.976;2024-02-14T01:55:42;5.55;;;3.53;;
65665;SDS011;52365;47.464;18.976;2024-02-14T01:56:03;6.13;;;3.50;;
65665;SDS011;52365;47.464;18.976;2024-02-14T01:56:25;6.57;;;3.53;;
65665;SDS011;52365;47.464;18.976;2024-02-14T01:56:48;6.15;;;3.50;;
65665;SDS011;52365;47.464;18.976;2024-02-14T01:57:09;6.50;;;3.58;;
65665;SDS011;52365;47.464;18.976;2024-02-14T01:57:32;6.22;;;3.70;;
65665;SDS011;52365;47.464;18.976;2024-02-14T01:57:49;5.68;;;3.47;;
65665;SDS011;52365;47.464;18.976;2024-02-14T01:58:10;6.12;;;3.40;;
65665;SDS011;52365;47.464;18.976;2024-02-14T01:58:32;6.12;;;3.37;;
65665;SDS011;52365;47.464;18.976;2024-02-14T01:58:54;6.53;;;3.62;;
65665;SDS011;52365;47.464;18.976;2024-02-14T01:59:15;5.72;;;3.60;;
65665;SDS011;52365;47.464;18.976;2024-02-14T01:59:39;6.35;;;3.95;;
65665;SDS011;52365;47.464;18.976;2024-02-14T02:00:01;5.30;;;3.40;;
65665;SDS011;52365;47.464;18.976;2024-02-14T02:00:29;5.60;;;3.37;;
65665;SDS011;52365;47.464;18.976;2024-02-14T02:00:52;5.15;;;3.40;;
65665;SDS011;52365;47.464;18.976;2024-02-14T02:01:18;6.60;;;3.60;;
65665;SDS011;52365;47.464;18.976;2024-02-14T02:01:33;5.70;;;3.50;;
65665;SDS011;52365;47.464;18.976;2024-02-14T02:01:54;5.22;;;3.33;;
65665;SDS011;52365;47.464;18.976;2024-02-14T02:02:16;6.28;;;3.47;;
65665;SDS011;52365;47.464;18.976;2024-02-14T02:02:32;6.12;;;3.60;;
65665;SDS011;52365;47.464;18.976;2024-02-14T02:02:53;6.25;;;4.03;;
65665;SDS011;52365;47.464;18.976;2024-02-14T02:03:16;7.07;;;4.07;;
65665;SDS011;52365;47.464;18.976;2024-02-14T02:03:37;5.70;;;3.80;;
65665;SDS011;52365;47.464;18.976;2024-02-14T02:03:58;5.47;;;3.72;;
65665;SDS011;52365;47.464;18.976;2024-02-14T02:04:20;6.57;;;3.72;;
65665;SDS011;52365;47.464;18.976;2024-02-14T02:04:41;6.15;;;3.58;;
65665;SDS011;52365;47.464;18.976;2024-02-14T02:05:02;6.07;;;3.42;;
65665;SDS011;52365;47.464;18.976;2024-02-14T02:05:23;4.70;;;3.03;;
65665;SDS011;52365;47.464;18.976;2024-02-14T02:05:44;4.68;;;3.20;;
65665;SDS011;52365;47.464;18.976;2024-02-14T02:06:05;5.40;;;3.30;;